createdAt,value
2018-12-08T00:01:38.293Z,16.9
2018-12-08T00:02:27.386Z,16.9
2018-12-08T00:03:17.723Z,16.9
2018-12-08T00:04:07.984Z,16.8
2018-12-08T00:04:58.651Z,16.7
2018-12-08T00:05:48.165Z,16.7
2018-12-08T00:06:39.102Z,16.6
2018-12-08T00:24:50.684Z,17.3
2018-12-08T00:25:40.517Z,17.3
2018-12-08T00:26:31.112Z,17.3
2018-12-08T00:27:21.109Z,17.4
2018-12-08T00:28:10.399Z,17.4
2018-12-08T00:29:00.677Z,17.4
2018-12-08T00:29:51.562Z,17.4
2018-12-08T00:30:41.424Z,17.4
2018-12-08T00:31:31.649Z,17.4
2018-12-08T00:32:21.017Z,17.3
2018-12-08T00:33:10.681Z,17.3
2018-12-08T00:34:01.696Z,17.2
2018-12-08T00:34:51.635Z,17.1
2018-12-08T00:35:41.123Z,17.1
2018-12-08T00:36:30.921Z,17.1
2018-12-08T00:38:11.028Z,16.9
2018-12-08T00:39:01.923Z,16.9
2018-12-08T00:39:52.031Z,16.9
2018-12-08T00:40:42.584Z,16.8
2018-12-08T00:41:31.516Z,16.8
2018-12-08T00:42:21.300Z,16.8
2018-12-08T00:43:11.116Z,16.8
2018-12-08T00:44:01.981Z,16.7
2018-12-08T00:44:51.478Z,16.7
2018-12-08T00:45:41.598Z,16.8
2018-12-08T00:46:32.242Z,16.8
2018-12-08T00:47:22.300Z,16.8
2018-12-08T00:48:11.451Z,16.8
2018-12-08T00:49:02.315Z,16.8
2018-12-08T00:49:50.808Z,16.7
2018-12-08T00:50:42.479Z,16.7
2018-12-08T00:51:32.744Z,16.8
2018-12-08T00:52:21.715Z,16.9
2018-12-08T00:53:12.160Z,16.9
2018-12-08T00:54:02.398Z,16.9
2018-12-08T00:54:52.784Z,16.9
2018-12-08T00:56:32.320Z,16.9
2018-12-08T00:58:13.067Z,17.1
2018-12-08T00:59:02.720Z,17.1
2018-12-08T00:59:53.127Z,17.1
2018-12-08T01:00:42.802Z,17.1
2018-12-08T01:01:32.045Z,17.1
2018-12-08T01:02:24.205Z,17.1
2018-12-08T01:03:13.327Z,17.1
2018-12-08T01:04:02.085Z,17.2
2018-12-08T01:04:53.424Z,17.3
2018-12-08T01:05:43.133Z,17.3
2018-12-08T01:06:32.707Z,17.4
2018-12-08T01:07:23.595Z,17.3
2018-12-08T01:08:13.112Z,17.3
2018-12-08T01:09:03.139Z,17.3
2018-12-08T01:09:54.054Z,17.4
2018-12-08T01:10:44.582Z,17.4
2018-12-08T01:11:33.324Z,17.4
2018-12-08T01:12:23.303Z,17.4
2018-12-08T01:13:14.524Z,17.3
2018-12-08T01:14:03.478Z,17.3
2018-12-08T01:14:53.878Z,17.3
2018-12-08T01:15:44.438Z,17.3
2018-12-08T01:16:34.011Z,17.3
2018-12-08T01:17:24.383Z,17.3
2018-12-08T01:18:13.529Z,17.2
2018-12-08T01:19:04.633Z,17.1
2018-12-08T01:20:44.737Z,16.9
2018-12-08T01:21:34.609Z,16.9
2018-12-08T01:22:24.720Z,16.9
2018-12-08T01:23:14.935Z,16.8
2018-12-08T01:24:04.670Z,16.8
2018-12-08T01:24:53.778Z,16.7
2018-12-08T01:25:44.690Z,16.7
2018-12-08T01:26:35.733Z,16.6
2018-12-08T01:27:24.393Z,16.6
2018-12-08T01:28:15.334Z,16.6
2018-12-08T01:29:04.788Z,16.6
2018-12-08T01:29:54.546Z,16.7
2018-12-08T01:30:45.258Z,16.6
2018-12-08T01:31:33.987Z,16.6
2018-12-08T01:32:24.470Z,16.6
2018-12-08T01:33:15.702Z,16.7
2018-12-08T01:34:04.888Z,16.8
2018-12-08T01:34:55.030Z,16.8
2018-12-08T01:35:45.759Z,16.8
2018-12-08T01:36:34.909Z,16.8
2018-12-08T01:37:23.467Z,16.8
2018-12-08T01:38:15.253Z,16.9
2018-12-08T01:39:05.776Z,16.9
2018-12-08T01:39:55.498Z,16.9
2018-12-08T01:41:36.861Z,17.1
2018-12-08T01:42:25.825Z,17.1
2018-12-08T01:43:16.041Z,17.1
2018-12-08T01:44:05.798Z,17.1
2018-12-08T01:44:56.398Z,17.1
2018-12-08T01:45:45.428Z,17.1
2018-12-08T01:46:35.658Z,17.2
2018-12-08T01:47:25.753Z,17.3
2018-12-08T01:48:15.615Z,17.3
2018-12-08T01:49:05.143Z,17.3
2018-12-08T01:49:55.682Z,17.3
2018-12-08T01:50:46.240Z,17.2
2018-12-08T01:51:36.367Z,17.2
2018-12-08T01:52:25.805Z,17.2
2018-12-08T01:53:16.395Z,17.2
2018-12-08T01:54:06.768Z,17.2
2018-12-08T01:54:56.907Z,17.2
2018-12-08T01:55:45.265Z,17.1
2018-12-08T01:56:37.010Z,17.1
2018-12-08T01:57:26.987Z,17.1
2018-12-08T01:59:56.854Z,16.9
2018-12-08T02:00:46.661Z,16.8
2018-12-08T02:01:36.806Z,16.7
2018-12-08T02:02:27.045Z,16.6
2018-12-08T02:03:17.386Z,16.5
2018-12-08T02:04:06.734Z,16.5
2018-12-08T02:04:58.037Z,16.4
2018-12-08T02:05:46.462Z,16.4
2018-12-08T02:06:38.963Z,16.4
2018-12-08T02:07:27.651Z,16.4
2018-12-08T02:08:16.708Z,16.4
2018-12-08T02:09:07.050Z,16.4
2018-12-08T02:09:57.463Z,16.4
2018-12-08T02:10:47.434Z,16.4
2018-12-08T02:11:37.751Z,16.5
2018-12-08T02:12:27.992Z,16.5
2018-12-08T02:13:17.325Z,16.5
2018-12-08T02:14:08.218Z,16.6
2018-12-08T02:14:57.678Z,16.6
2018-12-08T02:15:46.402Z,16.6
2018-12-08T02:16:38.180Z,16.8
2018-12-08T02:17:27.295Z,16.8
2018-12-08T02:18:17.107Z,16.9
2018-12-08T02:19:07.718Z,16.9
2018-12-08T02:19:56.509Z,16.9
2018-12-08T02:20:47.687Z,16.9
2018-12-08T02:24:07.869Z,17.1
2018-12-08T02:24:58.220Z,17.1
2018-12-08T02:25:47.451Z,17.1
2018-12-08T02:26:38.089Z,17.1
2018-12-08T02:27:28.302Z,17.1
2018-12-08T02:28:18.330Z,17.1
2018-12-08T02:29:07.919Z,17.1
2018-12-08T02:32:29.338Z,16.9
2018-12-08T02:33:22.146Z,16.9
2018-12-08T02:34:09.371Z,16.9
2018-12-08T02:34:58.133Z,16.8
2018-12-08T02:35:48.173Z,16.8
2018-12-08T02:36:39.415Z,16.7
2018-12-08T02:37:28.971Z,16.7
2018-12-08T02:38:18.311Z,16.6
2018-12-08T02:39:09.461Z,16.6
2018-12-08T02:39:59.215Z,16.4
2018-12-08T02:40:50.418Z,16.5
2018-12-08T02:41:39.609Z,16.4
2018-12-08T02:42:29.154Z,16.4
2018-12-08T02:43:20.225Z,16.4
2018-12-08T02:44:10.580Z,16.4
2018-12-08T02:45:00.017Z,16.4
2018-12-08T02:45:50.417Z,16.4
2018-12-08T02:46:39.191Z,16.4
2018-12-08T02:47:29.279Z,16.4
2018-12-08T02:48:20.271Z,16.5
2018-12-08T02:49:10.700Z,16.6
2018-12-08T02:49:59.790Z,16.6
2018-12-08T02:50:50.140Z,16.6
2018-12-08T02:51:40.709Z,16.6
2018-12-08T02:52:30.827Z,16.7
2018-12-08T02:53:20.649Z,16.8
2018-12-08T02:54:11.151Z,16.8
2018-12-08T02:55:00.773Z,16.8
2018-12-08T02:55:51.029Z,16.8
2018-12-08T02:56:41.086Z,16.9
2018-12-08T02:57:30.604Z,16.9
2018-12-08T02:59:10.541Z,17.1
2018-12-08T03:00:01.116Z,17.1
2018-12-08T03:00:50.569Z,17.2
2018-12-08T03:01:40.894Z,17.3
2018-12-08T03:02:30.408Z,17.2
2018-12-08T03:03:21.311Z,17.2
2018-12-08T03:04:12.130Z,17.2
2018-12-08T03:05:01.723Z,17.2
2018-12-08T03:05:51.643Z,17.2
2018-12-08T03:06:40.805Z,17.3
2018-12-08T03:07:30.921Z,17.3
2018-12-08T03:08:21.232Z,17.3
2018-12-08T03:09:12.682Z,17.2
2018-12-08T03:10:01.182Z,17.2
2018-12-08T03:10:51.341Z,17.1
2018-12-08T03:11:41.613Z,17.1
2018-12-08T03:12:31.746Z,17.1
2018-12-08T03:14:11.507Z,16.9
2018-12-08T03:15:02.085Z,16.9
2018-12-08T03:15:51.976Z,16.8
2018-12-08T03:16:42.275Z,16.8
2018-12-08T03:17:32.930Z,16.6
2018-12-08T03:18:22.528Z,16.6
2018-12-08T03:19:12.926Z,16.6
2018-12-08T03:20:02.409Z,16.5
2018-12-08T03:20:52.277Z,16.5
2018-12-08T03:21:42.791Z,16.4
2018-12-08T03:22:33.381Z,16.4
2018-12-08T03:23:23.042Z,16.3
2018-12-08T03:24:12.694Z,16.3
2018-12-08T03:25:02.754Z,16.3
2018-12-08T03:25:53.388Z,16.4
2018-12-08T03:26:43.110Z,16.4
2018-12-08T03:27:33.746Z,16.5
2018-12-08T03:28:23.535Z,16.5
2018-12-08T03:29:12.540Z,16.5
2018-12-08T03:30:02.434Z,16.5
2018-12-08T03:30:55.104Z,16.6
2018-12-08T03:31:43.652Z,16.6
2018-12-08T03:32:33.004Z,16.6
2018-12-08T03:33:23.532Z,16.6
2018-12-08T03:34:13.530Z,16.7
2018-12-08T03:35:02.966Z,16.7
2018-12-08T03:35:53.218Z,16.7
2018-12-08T03:36:42.795Z,16.8
2018-12-08T03:37:33.347Z,16.8
2018-12-08T03:38:23.983Z,16.8
2018-12-08T03:39:14.290Z,16.8
2018-12-08T03:40:04.422Z,16.8
2018-12-08T03:40:54.709Z,16.8
2018-12-08T03:41:43.390Z,16.9
2018-12-08T03:43:23.529Z,17.1
2018-12-08T03:47:33.770Z,17.1
2018-12-08T03:48:24.119Z,17.1
2018-12-08T03:49:15.018Z,17.2
2018-12-08T03:50:04.336Z,17.3
2018-12-08T03:50:54.695Z,17.3
2018-12-08T03:51:44.834Z,17.4
2018-12-08T03:52:35.290Z,17.4
2018-12-08T03:53:24.476Z,17.4
2018-12-08T03:54:14.853Z,17.4
2018-12-08T03:55:04.066Z,17.4
2018-12-08T03:55:54.692Z,17.3
2018-12-08T03:56:43.663Z,17.3
2018-12-08T03:57:35.221Z,17.2
2018-12-08T03:58:24.414Z,17.2
2018-12-08T03:59:15.133Z,17.1
2018-12-08T04:00:05.760Z,17.1
2018-12-08T04:01:45.639Z,16.9
2018-12-08T04:02:35.804Z,16.9
2018-12-08T04:03:24.822Z,16.9
2018-12-08T04:04:16.013Z,16.9
2018-12-08T04:05:05.526Z,16.8
2018-12-08T04:05:55.637Z,16.7
2018-12-08T04:06:44.600Z,16.6
2018-12-08T04:07:36.042Z,16.6
2018-12-08T04:08:25.458Z,16.6
2018-12-08T04:09:16.351Z,16.4
2018-12-08T04:10:07.743Z,16.4
2018-12-08T04:10:56.444Z,16.5
2018-12-08T04:11:46.535Z,16.5
2018-12-08T04:12:36.257Z,16.5
2018-12-08T04:13:25.803Z,16.5
2018-12-08T04:14:15.047Z,16.5
2018-12-08T04:15:06.227Z,16.5
2018-12-08T04:15:55.936Z,16.5
2018-12-08T04:16:46.062Z,16.6
2018-12-08T04:17:36.690Z,16.6
2018-12-08T04:18:26.467Z,16.6
2018-12-08T04:19:16.144Z,16.6
2018-12-08T04:20:06.405Z,16.6
2018-12-08T04:20:56.946Z,16.6
2018-12-08T04:21:46.898Z,16.6
2018-12-08T04:22:37.269Z,16.6
2018-12-08T04:23:26.824Z,16.7
2018-12-08T04:24:17.649Z,16.7
2018-12-08T04:25:07.089Z,16.8
2018-12-08T04:25:57.395Z,16.9
2018-12-08T04:26:46.705Z,16.9
2018-12-08T04:27:36.195Z,16.9
2018-12-08T04:28:27.054Z,16.9
2018-12-08T04:29:16.979Z,16.9
2018-12-08T04:30:07.252Z,16.9
2018-12-08T04:30:58.774Z,16.8
2018-12-08T04:31:48.210Z,16.8
2018-12-08T04:32:37.144Z,16.7
2018-12-08T04:33:27.471Z,16.6
2018-12-08T04:34:17.274Z,16.5
2018-12-08T04:35:07.699Z,16.4
2018-12-08T04:35:59.284Z,16.3
2018-12-08T04:36:46.834Z,16.2
2018-12-08T04:54:06.724Z,16.7
2018-12-08T04:54:56.592Z,16.8
2018-12-08T04:55:45.792Z,16.8
2018-12-08T04:56:35.899Z,16.9
2018-12-08T04:57:25.967Z,16.9
2018-12-08T04:58:15.963Z,16.9
2018-12-08T04:59:06.561Z,16.9
2018-12-08T04:59:56.334Z,16.9
2018-12-08T05:00:46.688Z,16.9
2018-12-08T05:02:27.226Z,17.1
2018-12-08T05:03:16.004Z,17.1
2018-12-08T05:04:06.278Z,17.1
2018-12-08T05:05:46.723Z,16.9
2018-12-08T05:06:36.786Z,16.9
2018-12-08T05:07:27.639Z,16.9
2018-12-08T05:08:17.164Z,16.9
2018-12-08T05:09:05.987Z,16.8
2018-12-08T05:09:57.219Z,16.8
2018-12-08T05:10:47.339Z,16.7
2018-12-08T05:11:37.211Z,16.6
2018-12-08T05:12:27.703Z,16.6
2018-12-08T05:13:17.262Z,16.5
2018-12-08T05:14:07.279Z,16.4
2018-12-08T05:14:57.638Z,16.4
2018-12-08T05:15:47.201Z,16.4
2018-12-08T05:16:38.014Z,16.3
2018-12-08T05:17:26.670Z,16.3
2018-12-08T05:18:17.011Z,16.3
2018-12-08T05:19:08.430Z,16.3
2018-12-08T05:19:57.983Z,16.3
2018-12-08T05:20:48.610Z,16.4
2018-12-08T05:21:38.060Z,16.4
2018-12-08T05:22:28.141Z,16.4
2018-12-08T05:23:18.008Z,16.4
2018-12-08T05:24:07.648Z,16.4
2018-12-08T05:24:57.876Z,16.4
2018-12-08T05:25:48.563Z,16.4
2018-12-08T05:26:38.538Z,16.5
2018-12-08T05:27:28.222Z,16.5
2018-12-08T05:28:17.970Z,16.6
2018-12-08T05:29:08.320Z,16.6
2018-12-08T05:29:58.175Z,16.8
2018-12-08T05:30:48.764Z,16.8
2018-12-08T05:31:38.492Z,16.8
2018-12-08T05:32:28.649Z,16.8
2018-12-08T05:33:18.312Z,16.8
2018-12-08T05:34:08.942Z,16.8
2018-12-08T05:34:58.489Z,16.8
2018-12-08T05:35:48.260Z,16.8
2018-12-08T05:36:39.435Z,16.8
2018-12-08T05:37:29.015Z,16.9
2018-12-08T05:38:18.536Z,16.9
2018-12-08T05:39:08.890Z,17.1
2018-12-08T05:39:59.225Z,17.1
2018-12-08T05:40:49.197Z,17.1
2018-12-08T05:41:38.654Z,17.2
2018-12-08T05:42:29.097Z,17.2
2018-12-08T05:43:18.820Z,17.3
2018-12-08T05:44:09.505Z,17.2
2018-12-08T05:44:59.188Z,17.2
2018-12-08T05:45:48.979Z,17.2
2018-12-08T05:46:39.438Z,17.2
2018-12-08T05:47:29.633Z,17.2
2018-12-08T05:48:19.622Z,17.2
2018-12-08T05:49:10.122Z,17.2
2018-12-08T05:49:59.727Z,17.1
2018-12-08T05:50:50.144Z,17.1
2018-12-08T05:52:30.222Z,16.9
2018-12-08T05:53:20.775Z,16.9
2018-12-08T05:54:10.033Z,16.9
2018-12-08T05:54:59.887Z,16.8
2018-12-08T05:55:50.399Z,16.8
2018-12-08T05:56:40.266Z,16.7
2018-12-08T05:57:30.337Z,16.6
2018-12-08T05:58:20.264Z,16.6
2018-12-08T05:59:09.829Z,16.6
2018-12-08T06:00:00.694Z,16.5
2018-12-08T06:00:50.189Z,16.4
2018-12-08T06:01:41.926Z,16.4
2018-12-08T06:02:30.577Z,16.4
2018-12-08T06:03:21.171Z,16.5
2018-12-08T06:04:10.691Z,16.5
2018-12-08T06:05:00.219Z,16.4
2018-12-08T06:05:51.051Z,16.4
2018-12-08T06:06:41.647Z,16.4
2018-12-08T06:07:30.641Z,16.4
2018-12-08T06:08:20.702Z,16.4
2018-12-08T06:09:11.319Z,16.4
2018-12-08T06:10:01.356Z,16.4
2018-12-08T06:10:50.669Z,16.5
2018-12-08T06:11:42.421Z,16.6
2018-12-08T06:12:31.561Z,16.6
2018-12-08T06:13:21.038Z,16.6
2018-12-08T06:14:11.375Z,16.7
2018-12-08T06:15:02.052Z,16.8
2018-12-08T06:15:51.213Z,16.8
2018-12-08T06:16:41.840Z,16.8
2018-12-08T06:17:31.901Z,16.8
2018-12-08T06:18:22.498Z,16.8
2018-12-08T06:19:10.873Z,16.8
2018-12-08T06:20:01.609Z,16.8
2018-12-08T06:20:51.835Z,16.8
2018-12-08T06:21:42.743Z,16.9
2018-12-08T06:22:32.105Z,16.9
2018-12-08T06:23:21.715Z,16.9
2018-12-08T06:24:10.693Z,16.9
2018-12-08T06:25:52.717Z,17.1
2018-12-08T06:27:33.400Z,17.1
2018-12-08T06:28:22.069Z,17.1
2018-12-08T06:29:12.362Z,17.1
2018-12-08T06:30:01.888Z,17.1
2018-12-08T06:30:52.904Z,17.1
2018-12-08T06:31:42.397Z,17.1
2018-12-08T06:32:33.136Z,17.1
2018-12-08T06:33:22.154Z,17.1
2018-12-08T06:34:12.447Z,17.1
2018-12-08T06:35:02.794Z,17.3
2018-12-08T06:35:53.394Z,17.3
2018-12-08T06:36:43.553Z,17.3
2018-12-08T06:37:32.677Z,17.3
2018-12-08T06:38:23.169Z,17.3
2018-12-08T06:39:13.329Z,17.3
2018-12-08T06:40:04.186Z,17.3
2018-12-08T06:40:53.434Z,17.2
2018-12-08T06:41:41.874Z,17.1
2018-12-08T06:43:22.844Z,16.9
2018-12-08T06:44:13.157Z,16.8
2018-12-08T06:45:04.074Z,16.8
2018-12-08T06:45:53.294Z,16.7
2018-12-08T06:46:44.194Z,16.6
2018-12-08T06:47:33.077Z,16.6
2018-12-08T06:48:23.481Z,16.5
2018-12-08T06:49:13.603Z,16.5
2018-12-08T06:50:03.791Z,16.4
2018-12-08T06:50:53.131Z,16.4
2018-12-08T06:51:44.496Z,16.4
2018-12-08T06:52:33.829Z,16.5
2018-12-08T06:53:23.614Z,16.5
2018-12-08T06:54:14.386Z,16.5
2018-12-08T06:55:04.233Z,16.6
2018-12-08T06:55:53.938Z,16.6
2018-12-08T06:56:43.828Z,16.6
2018-12-08T06:57:33.666Z,16.6
2018-12-08T06:58:24.711Z,16.5
2018-12-08T06:59:14.913Z,16.4
2018-12-08T07:00:03.712Z,16.4
2018-12-08T07:00:53.903Z,16.4
2018-12-08T07:01:44.745Z,16.3
2018-12-08T07:02:33.915Z,16.2
2018-12-08T07:03:25.088Z,16.1
2018-12-08T07:04:14.860Z,15.8
2018-12-08T07:05:04.607Z,15.6
2018-12-08T07:05:54.673Z,15.4
2018-12-08T07:06:45.060Z,15.3
2018-12-08T07:07:35.010Z,15.3
2018-12-08T07:08:25.726Z,15.3
2018-12-08T07:09:15.473Z,15.3
2018-12-08T07:10:05.016Z,15.4
2018-12-08T07:10:55.845Z,15.5
2018-12-08T07:11:45.385Z,15.6
2018-12-08T07:12:38.255Z,15.6
2018-12-08T07:13:24.557Z,15.7
2018-12-08T07:14:15.511Z,15.8
2018-12-08T07:15:06.175Z,15.8
2018-12-08T07:15:56.160Z,15.8
2018-12-08T07:16:45.195Z,15.9
2018-12-08T07:17:34.651Z,15.9
2018-12-08T07:18:28.299Z,15.9
2018-12-08T07:19:15.849Z,15.9
2018-12-08T07:20:05.981Z,16
2018-12-08T07:20:55.087Z,16.1
2018-12-08T07:21:46.265Z,16.1
2018-12-08T07:22:35.997Z,16.2
2018-12-08T07:23:26.652Z,16.3
2018-12-08T07:24:15.829Z,16.3
2018-12-08T07:25:05.912Z,16.4
2018-12-08T07:25:57.154Z,16.4
2018-12-08T07:26:45.887Z,16.5
2018-12-08T07:27:36.099Z,16.6
2018-12-08T07:28:28.959Z,16.6
2018-12-08T07:29:17.283Z,16.6
2018-12-08T07:30:06.374Z,16.6
2018-12-08T07:30:57.089Z,16.6
2018-12-08T07:31:47.236Z,16.6
2018-12-08T07:32:45.023Z,16.6
2018-12-08T07:33:26.162Z,16.5
2018-12-08T07:34:16.559Z,16.5
2018-12-08T07:35:06.633Z,16.5
2018-12-08T07:35:56.396Z,16.4
2018-12-08T07:36:47.021Z,16.4
2018-12-08T07:37:36.706Z,16.4
2018-12-08T07:38:27.394Z,16.3
2018-12-08T07:39:17.101Z,16.2
2018-12-08T07:40:06.959Z,16.1
2018-12-08T07:40:57.003Z,16.1
2018-12-08T07:41:47.651Z,16.1
2018-12-08T07:42:36.818Z,16
2018-12-08T07:43:26.903Z,15.9
2018-12-08T07:44:18.318Z,15.9
2018-12-08T07:45:07.833Z,15.9
2018-12-08T07:45:57.908Z,15.8
2018-12-08T07:46:47.925Z,15.8
2018-12-08T07:47:38.089Z,15.8
2018-12-08T07:48:27.487Z,15.8
2018-12-08T07:49:17.099Z,15.8
2018-12-08T07:50:07.417Z,15.7
2018-12-08T07:50:57.470Z,15.6
2018-12-08T07:51:48.025Z,15.6
2018-12-08T07:52:37.604Z,15.6
2018-12-08T07:53:28.742Z,15.6
2018-12-08T07:54:17.444Z,15.7
2018-12-08T07:55:08.035Z,15.8
2018-12-08T07:55:57.625Z,15.9
2018-12-08T07:56:48.925Z,15.9
2018-12-08T07:57:37.862Z,15.9
2018-12-08T07:58:27.912Z,15.9
2018-12-08T07:59:17.699Z,15.9
2018-12-08T08:00:10.603Z,16.1
2018-12-08T08:00:59.009Z,16.1
2018-12-08T08:01:50.309Z,16.1
2018-12-08T08:02:38.586Z,16.1
2018-12-08T08:03:27.692Z,16.2
2018-12-08T08:04:18.274Z,16.3
2018-12-08T08:05:10.120Z,16.4
2018-12-08T08:05:59.651Z,16.4
2018-12-08T08:06:49.606Z,16.4
2018-12-08T08:07:39.358Z,16.5
2018-12-08T08:08:29.411Z,16.5
2018-12-08T08:09:19.251Z,16.6
2018-12-08T08:10:08.023Z,16.6
2018-12-08T08:11:00.236Z,16.7
2018-12-08T08:11:49.933Z,16.7
2018-12-08T08:12:40.003Z,16.8
2018-12-08T08:13:29.475Z,16.8
2018-12-08T08:14:19.600Z,16.8
2018-12-08T08:15:09.712Z,16.7
2018-12-08T08:15:59.189Z,16.7
2018-12-08T08:16:50.242Z,16.7
2018-12-08T08:17:40.303Z,16.6
2018-12-08T08:18:30.078Z,16.6
2018-12-08T08:19:20.413Z,16.5
2018-12-08T08:20:09.488Z,16.4
2018-12-08T08:21:00.643Z,16.3
2018-12-08T08:21:50.052Z,16.3
2018-12-08T08:22:40.932Z,16.2
2018-12-08T08:23:30.475Z,16.2
2018-12-08T08:24:19.521Z,16.1
2018-12-08T08:25:10.257Z,16.1
2018-12-08T08:25:59.874Z,16
2018-12-08T08:26:50.495Z,15.9
2018-12-08T08:27:40.687Z,15.9
2018-12-08T08:28:30.662Z,15.9
2018-12-08T08:29:20.554Z,15.8
2018-12-08T08:30:10.614Z,15.8
2018-12-08T08:31:00.414Z,15.8
2018-12-08T08:31:52.539Z,15.7
2018-12-08T08:32:40.235Z,15.6
2018-12-08T08:33:31.439Z,15.6
2018-12-08T08:34:20.932Z,15.6
2018-12-08T08:35:11.109Z,15.6
2018-12-08T08:36:00.816Z,15.7
2018-12-08T08:36:51.047Z,15.8
2018-12-08T08:37:41.477Z,15.9
2018-12-08T08:38:31.579Z,15.9
2018-12-08T08:39:20.469Z,16
2018-12-08T08:40:11.965Z,15.9
2018-12-08T08:41:01.066Z,15.9
2018-12-08T08:41:50.309Z,16
2018-12-08T08:42:41.168Z,16
2018-12-08T08:43:31.226Z,16.1
2018-12-08T08:44:21.845Z,16.1
2018-12-08T08:45:11.106Z,16.1
2018-12-08T08:46:02.024Z,16.1
2018-12-08T08:46:51.516Z,16.2
2018-12-08T08:47:41.886Z,16.3
2018-12-08T08:48:32.471Z,16.3
2018-12-08T08:49:22.268Z,16.3
2018-12-08T08:50:14.341Z,16.3
2018-12-08T08:51:02.030Z,16.3
2018-12-08T08:51:51.833Z,16.4
2018-12-08T08:52:42.166Z,16.4
2018-12-08T09:08:28.980Z,16.1
2018-12-08T09:09:19.765Z,15.9
2018-12-08T09:10:09.128Z,15.9
2018-12-08T09:10:58.752Z,15.9
2018-12-08T09:11:49.382Z,15.8
2018-12-08T09:12:38.314Z,15.8
2018-12-08T09:13:29.724Z,15.7
2018-12-08T09:14:23.444Z,15.6
2018-12-08T09:15:08.777Z,15.6
2018-12-08T09:15:59.432Z,15.6
2018-12-08T09:16:49.829Z,15.6
2018-12-08T09:17:39.624Z,15.6
2018-12-08T09:18:30.256Z,15.6
2018-12-08T09:19:19.602Z,15.7
2018-12-08T09:20:09.223Z,15.8
2018-12-08T09:20:59.737Z,15.8
2018-12-08T09:21:49.497Z,15.8
2018-12-08T09:22:38.509Z,15.9
2018-12-08T09:23:29.976Z,15.9
2018-12-08T09:24:19.926Z,16.1
2018-12-08T09:25:10.299Z,16.1
2018-12-08T09:26:00.594Z,16.1
2018-12-08T09:26:50.397Z,16.1
2018-12-08T09:27:40.431Z,16.1
2018-12-08T09:28:31.034Z,16.3
2018-12-08T09:29:20.259Z,16.3
2018-12-08T09:30:09.915Z,16.3
2018-12-08T09:30:59.159Z,16.3
2018-12-08T09:31:50.053Z,16.4
2018-12-08T09:32:39.485Z,16.4
2018-12-08T09:33:31.058Z,16.4
2018-12-08T09:34:20.588Z,16.5
2018-12-08T09:35:10.498Z,16.6
2018-12-08T09:36:01.548Z,16.6
2018-12-08T09:36:50.892Z,16.6
2018-12-08T09:37:40.166Z,16.6
2018-12-08T09:38:31.046Z,16.6
2018-12-08T09:39:21.218Z,16.6
2018-12-08T09:40:10.773Z,16.6
2018-12-08T09:41:01.210Z,16.7
2018-12-08T09:41:51.685Z,16.6
2018-12-08T09:42:40.737Z,16.6
2018-12-08T09:43:31.549Z,16.6
2018-12-08T09:44:21.343Z,16.6
2018-12-08T09:45:10.852Z,16.6
2018-12-08T09:46:02.233Z,16.5
2018-12-08T09:46:50.730Z,16.4
2018-12-08T09:47:41.280Z,16.4
2018-12-08T09:48:31.327Z,16.3
2018-12-08T09:49:22.008Z,16.3
2018-12-08T09:50:12.055Z,16.3
2018-12-08T09:51:02.315Z,16.2
2018-12-08T09:51:51.057Z,16.2
2018-12-08T09:52:40.887Z,16.1
2018-12-08T09:53:31.947Z,16.1
2018-12-08T09:54:22.558Z,16
2018-12-08T09:55:12.729Z,15.9
2018-12-08T09:56:03.295Z,15.9
2018-12-08T09:56:52.203Z,15.8
2018-12-08T09:57:42.237Z,15.8
2018-12-08T09:58:32.429Z,15.8
2018-12-08T09:59:22.882Z,15.8
2018-12-08T10:00:12.707Z,15.7
2018-12-08T10:01:02.827Z,15.7
2018-12-08T10:01:53.059Z,15.7
2018-12-08T10:02:42.468Z,15.7
2018-12-08T10:03:31.854Z,15.8
2018-12-08T10:04:22.206Z,15.8
2018-12-08T10:05:11.877Z,15.8
2018-12-08T10:06:02.956Z,15.8
2018-12-08T10:06:52.207Z,15.8
2018-12-08T10:07:43.189Z,15.8
2018-12-08T10:08:33.049Z,15.8
2018-12-08T10:09:23.549Z,15.8
2018-12-08T10:10:13.049Z,15.7
2018-12-08T10:11:03.549Z,15.6
2018-12-08T10:11:52.909Z,15.6
2018-12-08T10:12:42.979Z,15.5
2018-12-08T10:13:32.639Z,15.5
2018-12-08T10:14:24.106Z,15.4
2018-12-08T10:15:12.947Z,15.4
2018-12-08T10:16:03.805Z,15.4
2018-12-08T10:16:53.831Z,15.4
2018-12-08T10:17:44.129Z,15.5
2018-12-08T10:18:33.984Z,15.5
2018-12-08T10:19:24.054Z,15.5
2018-12-08T10:20:13.769Z,15.6
2018-12-08T10:21:03.604Z,15.6
2018-12-08T10:21:53.816Z,15.8
2018-12-08T10:22:44.495Z,15.8
2018-12-08T10:23:34.036Z,15.9
2018-12-08T10:24:24.078Z,15.9
2018-12-08T10:25:14.563Z,16.1
2018-12-08T10:26:04.427Z,16.1
2018-12-08T10:26:54.005Z,16.2
2018-12-08T10:27:46.011Z,16.3
2018-12-08T10:28:34.620Z,16.3
2018-12-08T10:29:23.271Z,16.3
2018-12-08T10:30:14.611Z,16.3
2018-12-08T10:31:03.928Z,16.4
2018-12-08T10:31:54.509Z,16.4
2018-12-08T10:32:44.321Z,16.4
2018-12-08T10:33:37.193Z,16.6
2018-12-08T10:34:24.783Z,16.6
2018-12-08T10:35:15.152Z,16.6
2018-12-08T10:36:04.844Z,16.6
2018-12-08T10:36:55.445Z,16.7
2018-12-08T10:37:45.225Z,16.8
2018-12-08T10:38:35.281Z,16.8
2018-12-08T10:39:25.378Z,16.7
2018-12-08T10:40:15.717Z,16.7
2018-12-08T10:41:05.772Z,16.7
2018-12-08T10:41:55.508Z,16.6
2018-12-08T10:42:45.544Z,16.5
2018-12-08T10:43:35.050Z,16.4
2018-12-08T10:44:24.835Z,16.4
2018-12-08T10:45:15.557Z,16.3
2018-12-08T10:46:05.507Z,16.3
2018-12-08T10:46:55.630Z,16.2
2018-12-08T10:47:45.724Z,16.1
2018-12-08T10:48:35.322Z,16.1
2018-12-08T10:49:25.084Z,16.1
2018-12-08T10:50:16.244Z,16.1
2018-12-08T10:51:06.107Z,15.9
2018-12-08T10:51:56.287Z,15.9
2018-12-08T10:52:46.006Z,15.9
2018-12-08T10:53:36.641Z,15.8
2018-12-08T10:54:27.292Z,15.8
2018-12-08T10:55:16.015Z,15.8
2018-12-08T10:56:06.522Z,15.7
2018-12-08T10:56:56.234Z,15.7
2018-12-08T10:57:46.904Z,15.6
2018-12-08T10:58:35.806Z,15.7
2018-12-08T10:59:26.684Z,15.7
2018-12-08T11:00:16.867Z,15.8
2018-12-08T11:01:07.662Z,15.8
2018-12-08T11:01:56.969Z,15.8
2018-12-08T11:02:47.439Z,15.9
2018-12-08T11:03:36.946Z,15.9
2018-12-08T11:04:27.551Z,16
2018-12-08T11:05:16.293Z,16
2018-12-08T11:06:07.350Z,16.1
2018-12-08T11:06:56.713Z,16.1
2018-12-08T11:07:46.126Z,16.3
2018-12-08T11:08:37.080Z,16.3
2018-12-08T11:09:26.868Z,16.3
2018-12-08T11:10:17.003Z,16.3
2018-12-08T11:11:07.845Z,16.3
2018-12-08T11:11:56.222Z,16.4
2018-12-08T11:12:47.438Z,16.5
2018-12-08T11:13:36.172Z,16.6
2018-12-08T11:14:27.230Z,16.6
2018-12-08T11:15:17.276Z,16.7
2018-12-08T11:16:07.869Z,16.7
2018-12-08T11:16:57.468Z,16.8
2018-12-08T11:17:47.546Z,16.8
2018-12-08T11:18:37.035Z,16.8
2018-12-08T11:19:26.182Z,16.8
2018-12-08T11:20:17.259Z,16.8
2018-12-08T11:21:08.226Z,16.8
2018-12-08T11:21:57.442Z,16.7
2018-12-08T11:22:47.749Z,16.7
2018-12-08T11:23:39.893Z,16.6
2018-12-08T11:24:27.102Z,16.6
2018-12-08T11:25:17.662Z,16.5
2018-12-08T11:26:08.248Z,16.4
2018-12-08T11:26:58.865Z,16.4
2018-12-08T11:27:47.877Z,16.3
2018-12-08T11:28:38.934Z,16.3
2018-12-08T11:29:28.632Z,16.3
2018-12-08T11:30:19.066Z,16.1
2018-12-08T11:31:07.941Z,16.1
2018-12-08T11:31:59.229Z,16
2018-12-08T11:32:48.949Z,15.9
2018-12-08T11:33:39.338Z,15.9
2018-12-08T11:34:29.316Z,15.8
2018-12-08T11:35:18.826Z,15.8
2018-12-08T11:36:08.800Z,15.8
2018-12-08T11:37:00.303Z,15.8
2018-12-08T11:37:49.299Z,15.8
2018-12-08T11:38:39.185Z,15.9
2018-12-08T11:39:29.823Z,15.9
2018-12-08T11:40:19.529Z,15.9
2018-12-08T11:41:08.878Z,16
2018-12-08T11:41:58.361Z,16
2018-12-08T11:42:48.998Z,16.1
2018-12-08T11:43:39.766Z,16.1
2018-12-08T11:44:29.738Z,16.3
2018-12-08T11:45:19.719Z,16.3
2018-12-08T11:46:08.820Z,16.4
2018-12-08T11:46:59.663Z,16.4
2018-12-08T11:47:48.956Z,16.4
2018-12-08T11:48:38.285Z,16.5
2018-12-08T11:49:29.683Z,16.6
2018-12-08T11:50:19.455Z,16.6
2018-12-08T11:51:09.718Z,16.7
2018-12-08T11:51:59.865Z,16.7
2018-12-08T11:52:49.367Z,16.8
2018-12-08T11:53:39.373Z,16.9
2018-12-08T11:54:29.290Z,16.9
2018-12-08T11:55:20.222Z,16.9
2018-12-08T11:56:09.933Z,16.9
2018-12-08T11:57:00.212Z,16.9
2018-12-08T11:57:50.250Z,16.9
2018-12-08T11:58:40.480Z,16.9
2018-12-08T11:59:31.154Z,16.9
2018-12-08T12:00:20.602Z,16.9
2018-12-08T12:01:11.182Z,16.8
2018-12-08T12:02:00.680Z,16.8
2018-12-08T12:02:50.865Z,16.8
2018-12-08T12:03:40.547Z,16.8
2018-12-08T12:04:31.409Z,16.7
2018-12-08T12:05:20.634Z,16.7
2018-12-08T12:06:11.504Z,16.6
2018-12-08T12:07:01.005Z,16.6
2018-12-08T12:07:50.869Z,16.5
2018-12-08T12:08:40.629Z,16.4
2018-12-08T12:09:30.997Z,16.4
2018-12-08T12:10:21.776Z,16.4
2018-12-08T12:11:11.569Z,16.3
2018-12-08T12:12:01.616Z,16.1
2018-12-08T12:12:51.221Z,16.1
2018-12-08T12:13:43.049Z,16.1
2018-12-08T12:14:31.509Z,15.9
2018-12-08T12:15:20.940Z,15.9
2018-12-08T12:16:11.591Z,15.9
2018-12-08T12:17:02.048Z,15.9
2018-12-08T12:17:52.580Z,15.9
2018-12-08T12:18:41.581Z,15.9
2018-12-08T12:19:31.611Z,16